Time;durP1;ratioP1;P1;durP2;ratioP2;P2;SDS_P1;SDS_P2;PMS_P1;PMS_P2;Temp;Humidity;BMP_temperature;BMP_pressure;BME280_temperature;BME280_humidity;BME280_pressure;Samples;Min_cycle;Max_cycle;Signal;HPM_P1;HPM_P2
2022/11/29 00:01:03;;;;;;;6.03;5.63;;;;;;;6.94;100.00;101038.31;6089921;23;20020;-76
2022/11/29 00:03:30;;;;;;;6.05;5.65;;;;;;;6.97;100.00;101045.19;6087769;23;20025;-77
2022/11/29 00:06:03;;;;;;;5.82;5.35;;;;;;;6.99;100.00;101052.06;6084117;23;20087;-76
2022/11/29 00:08:29;;;;;;;5.05;4.75;;;;;;;6.55;100.00;100967.38;6117366;23;20017;-74
2022/11/29 00:10:56;;;;;;;6.85;6.22;;;;;;;6.51;100.00;100960.56;6098217;23;20415;-76
2022/11/29 00:13:22;;;;;;;6.80;6.15;;;;;;;6.44;100.00;100951.25;6110917;23;20449;-77
2022/11/29 00:15:48;;;;;;;6.10;5.60;;;;;;;7.08;100.00;101045.72;6092249;23;20201;-75
2022/11/29 00:18:15;;;;;;;7.88;7.07;;;;;;;6.62;100.00;100968.91;6112619;23;20013;-75
2022/11/29 00:20:41;;;;;;;6.13;5.65;;;;;;;6.92;100.00;101024.47;6118226;23;20564;-73
2022/11/29 00:23:07;;;;;;;6.45;5.95;;;;;;;6.98;100.00;101039.94;6085366;23;20313;-75
2022/11/29 00:25:33;;;;;;;5.38;4.93;;;;;;;6.47;100.00;100940.69;6117948;23;20028;-75
2022/11/29 00:28:00;;;;;;;8.93;5.95;;;;;;;6.12;100.00;100895.75;6112367;23;20017;-76
2022/11/29 00:30:26;;;;;;;7.45;6.68;;;;;;;6.18;100.00;100888.56;6110380;23;20014;-75
2022/11/29 00:32:53;;;;;;;6.63;5.70;;;;;;;6.26;100.00;100909.19;6108486;23;20076;-75
2022/11/29 00:35:19;;;;;;;5.60;5.20;;;;;;;6.78;100.00;100997.97;6117675;23;20009;-76
2022/11/29 00:37:45;;;;;;;8.88;7.50;;;;;;;6.82;100.00;101017.00;6090671;23;20407;-74
2022/11/29 00:40:12;;;;;;;6.43;5.82;;;;;;;6.76;100.00;101016.28;6110772;23;20415;-75
2022/11/29 00:42:38;;;;;;;6.25;5.80;;;;;;;6.60;100.00;100978.53;6111339;23;20640;-75
2022/11/29 00:45:05;;;;;;;9.40;7.32;;;;;;;6.73;100.00;101000.72;6117726;23;20342;-76
2022/11/29 00:47:32;;;;;;;8.98;6.57;;;;;;;7.03;100.00;101055.44;6114831;23;20544;-76
2022/11/29 00:49:58;;;;;;;10.52;6.25;;;;;;;7.02;100.00;101040.69;6117977;23;20037;-75
2022/11/29 00:52:24;;;;;;;6.10;5.50;;;;;;;6.98;100.00;101039.94;6107847;23;20297;-77
2022/11/29 00:54:51;;;;;;;9.73;7.63;;;;;;;6.91;100.00;101034.94;6114828;23;20017;-73
2022/11/29 00:57:17;;;;;;;6.30;5.72;;;;;;;6.97;100.00;101046.03;6121696;23;20616;-75
2022/11/29 00:59:43;;;;;;;7.55;6.57;;;;;;;6.31;100.00;100950.75;6124486;23;20014;-75
2022/11/29 01:02:10;;;;;;;8.40;6.03;;;;;;;6.79;100.00;101028.34;6111681;23;20094;-75
2022/11/29 01:04:36;;;;;;;11.35;6.60;;;;;;;6.98;100.00;101049.53;6117518;23;20639;-76
2022/11/29 01:07:02;;;;;;;6.47;5.97;;;;;;;7.08;100.00;101090.09;6119699;23;20211;-73
2022/11/29 01:09:29;;;;;;;6.75;5.95;;;;;;;6.84;100.00;101005.59;6117252;23;20533;-76
2022/11/29 01:11:55;;;;;;;7.38;6.78;;;;;;;7.18;100.00;101065.41;6097143;23;20029;-74
2022/11/29 01:14:22;;;;;;;6.57;6.07;;;;;;;6.25;100.00;100911.84;6117820;23;20017;-75
2022/11/29 01:16:48;;;;;;;8.18;6.20;;;;;;;6.71;100.00;100989.47;6103310;23;20255;-73
2022/11/29 01:19:14;;;;;;;6.45;5.95;;;;;;;6.98;100.00;101034.72;6119521;23;20033;-77
2022/11/29 01:21:41;;;;;;;6.78;6.10;;;;;;;6.84;100.00;101009.97;6083240;23;20072;-73
2022/11/29 01:24:07;;;;;;;7.38;6.78;;;;;;;7.05;100.00;101043.19;6118948;23;20321;-73
2022/11/29 01:26:33;;;;;;;6.57;5.85;;;;;;;6.78;100.00;101005.81;6063025;23;20030;-75
2022/11/29 01:29:00;;;;;;;7.03;6.45;;;;;;;7.12;100.00;101070.81;6120479;23;20024;-78
2022/11/29 01:31:34;;;;;;;5.60;5.20;;;;;;;7.14;100.00;101057.72;6105587;23;20469;-77
2022/11/29 01:34:03;;;;;;;6.65;6.00;;;;;;;7.13;100.00;101064.69;6053020;23;20353;-77
2022/11/29 01:36:29;;;;;;;6.20;5.70;;;;;;;6.92;100.00;101027.09;6092965;23;20490;-78
2022/11/29 01:38:58;;;;;;;7.38;6.72;;;;;;;6.82;100.00;101019.59;6117960;23;20731;-76
2022/11/29 01:41:27;;;;;;;5.75;5.15;;;;;;;7.01;100.00;101049.41;6088922;23;20021;-76
2022/11/29 01:44:00;;;;;;;9.05;6.40;;;;;;;6.96;100.00;101046.09;6120040;23;20046;-76
2022/11/29 01:46:28;;;;;;;6.40;5.90;;;;;;;6.37;100.00;100948.81;6119140;23;20025;-75
2022/11/29 01:49:00;;;;;;;6.63;6.05;;;;;;;7.14;100.00;101063.78;6091095;23;20347;-75
2022/11/29 01:51:28;;;;;;;10.55;5.70;;;;;;;7.18;100.00;101067.16;6116759;23;20078;-76
2022/11/29 01:53:55;;;;;;;7.40;6.43;;;;;;;7.20;100.00;101070.56;6098504;23;20560;-77
2022/11/29 01:56:23;;;;;;;7.13;6.43;;;;;;;6.81;100.00;101004.84;6117881;23;20575;-75
2022/11/29 01:58:50;;;;;;;8.32;6.00;;;;;;;6.64;100.00;100971.47;6123743;23;20458;-76
2022/11/29 02:01:16;;;;;;;11.10;6.50;;;;;;;6.64;100.00;100971.47;6110463;23;20029;-77
2022/11/29 02:03:42;;;;;;;11.90;6.32;;;;;;;7.18;100.00;101072.38;6124305;23;20088;-77
2022/11/29 02:06:09;;;;;;;6.25;5.75;;;;;;;6.70;100.00;101002.59;6107519;23;20027;-76
2022/11/29 02:08:39;;;;;;;11.45;6.45;;;;;;;6.67;100.00;101008.72;6119501;23;20017;-77
2022/11/29 02:11:16;;;;;;;9.77;8.23;;;;;;;7.05;100.00;101073.66;6104172;23;20030;-76
2022/11/29 02:14:06;;;;;;;18.10;7.38;;;;;;;7.04;100.00;101083.25;6113991;23;20029;-73
2022/11/29 02:16:46;;;;;;;5.88;5.47;;;;;;;6.92;100.00;101062.75;6115701;23;20442;-75
2022/11/29 02:19:37;;;;;;;6.20;5.80;;;;;;;7.03;100.00;101083.28;6116405;23;20029;-74
2022/11/29 02:22:23;;;;;;;6.18;5.68;;;;;;;6.46;100.00;100999.81;6087380;23;20049;-73
2022/11/29 02:25:23;;;;;;;6.18;5.78;;;;;;;6.84;100.00;101067.38;6111719;23;20025;-74
2022/11/29 02:28:17;;;;;;;11.75;6.75;;;;;;;7.07;100.00;101092.72;6111054;23;20445;-74
2022/11/29 02:31:08;;;;;;;8.77;7.93;;;;;;;6.83;100.00;101065.66;6086918;23;20021;-74
2022/11/29 02:33:59;;;;;;;6.72;5.60;;;;;;;7.09;100.00;101103.97;6106089;23;20025;-75
2022/11/29 02:36:57;;;;;;;6.13;5.68;;;;;;;6.96;100.00;101074.81;6083316;23;20028;-75
2022/11/29 02:39:43;;;;;;;11.27;7.32;;;;;;;7.13;100.00;101102.97;6112237;23;20186;-76
2022/11/29 02:42:49;;;;;;;7.50;6.85;;;;;;;7.19;100.00;101111.47;6118132;23;20094;-76
2022/11/29 02:45:48;;;;;;;7.43;6.40;;;;;;;7.20;100.00;101104.50;6106041;23;20584;-75
2022/11/29 02:48:26;;;;;;;8.55;7.78;;;;;;;7.27;100.00;101111.22;6113561;23;20045;-78
2022/11/29 02:53:34;;;;;;;7.30;6.55;;;;;;;7.29;100.00;101111.19;6057043;23;20629;-77
2022/11/29 02:56:19;;;;;;;7.72;7.03;;;;;;;7.33;100.00;101118.00;6083674;23;20522;-75
2022/11/29 02:58:57;;;;;;;7.85;7.10;;;;;;;7.34;100.00;101106.69;6082512;23;20052;-75
2022/11/29 03:01:45;;;;;;;7.93;6.68;;;;;;;7.28;100.00;101114.72;6082642;23;20010;-75
2022/11/29 03:04:44;;;;;;;6.90;6.28;;;;;;;7.31;100.00;101111.97;6061334;23;20015;-76
2022/11/29 03:07:30;;;;;;;7.18;6.47;;;;;;;7.30;100.00;101112.91;6083562;23;20026;-75
2022/11/29 03:10:07;;;;;;;8.32;7.65;;;;;;;7.28;100.00;101105.13;6079265;23;20085;-77
2022/11/29 03:12:43;;;;;;;8.13;7.03;;;;;;;7.22;100.00;101112.25;6077190;23;20040;-75
2022/11/29 03:15:19;;;;;;;9.02;7.90;;;;;;;6.71;100.00;101015.56;6062201;23;20675;-79
2022/11/29 03:18:04;;;;;;;7.25;6.65;;;;;;;7.26;100.00;101119.13;6086493;23;20026;-78
2022/11/29 03:20:57;;;;;;;7.72;6.53;;;;;;;7.23;100.00;101116.59;6081215;23;20518;-77
2022/11/29 03:24:13;;;;;;;9.27;8.40;;;;;;;7.20;100.00;101128.00;6064235;23;20087;-74
2022/11/29 03:26:44;;;;;;;16.48;6.10;;;;;;;7.24;100.00;101131.38;5991330;23;20025;-75
2022/11/29 03:29:27;;;;;;;9.77;7.27;;;;;;;5.72;100.00;100881.25;6013671;23;20031;-74
2022/11/29 03:31:56;;;;;;;8.90;8.07;;;;;;;7.21;100.00;101134.06;6055951;23;20014;-74
2022/11/29 03:34:53;;;;;;;22.67;7.78;;;;;;;7.22;100.00;101140.97;6086176;23;20091;-75
2022/11/29 03:37:51;;;;;;;14.98;6.85;;;;;;;7.17;100.00;101147.19;6081488;23;20311;-75
2022/11/29 03:40:27;;;;;;;12.38;7.05;;;;;;;7.11;100.00;101149.16;6078066;23;20080;-74
2022/11/29 03:43:01;;;;;;;13.30;8.13;;;;;;;6.99;100.00;101152.97;6081440;23;20068;-73
2022/11/29 03:45:33;;;;;;;14.77;9.10;;;;;;;7.14;100.00;101157.75;6082001;23;20399;-74
2022/11/29 03:48:19;;;;;;;8.27;7.30;;;;;;;7.12;100.00;101159.56;6058102;23;20023;-75
2022/11/29 03:50:55;;;;;;;10.57;7.43;;;;;;;6.98;100.00;101149.53;6056400;23;20080;-73
2022/11/29 03:53:31;;;;;;;16.13;9.25;;;;;;;6.68;100.00;101093.91;6082076;23;20336;-75
2022/11/29 03:56:00;;;;;;;8.30;7.47;;;;;;;6.83;100.00;101110.00;6082541;23;20380;-74
2022/11/29 03:58:45;;;;;;;8.15;7.43;;;;;;;7.21;100.00;101178.44;6085560;23;20037;-75
2022/11/29 04:01:21;;;;;;;11.32;7.38;;;;;;;7.23;100.00;101181.84;6052884;23;20376;-75
2022/11/29 04:04:28;;;;;;;13.32;7.63;;;;;;;7.22;100.00;101177.53;6083209;23;20096;-74
2022/11/29 04:07:12;;;;;;;11.50;7.22;;;;;;;7.26;100.00;101180.00;6076836;23;20357;-75
2022/11/29 04:09:53;;;;;;;13.85;6.50;;;;;;;7.21;100.00;101181.91;6074292;23;20295;-75
2022/11/29 04:12:30;;;;;;;8.32;7.53;;;;;;;7.23;100.00;101184.47;6081269;23;20033;-74
2022/11/29 04:15:36;;;;;;;10.80;7.35;;;;;;;7.05;100.00;101152.78;6056112;23;20023;-76
2022/11/29 04:18:35;;;;;;;7.63;6.47;;;;;;;6.71;100.00;101119.03;6077159;23;21705;-75
2022/11/29 04:21:30;;;;;;;8.63;7.70;;;;;;;7.15;100.00;101190.75;6089350;23;20478;-75
2022/11/29 04:24:24;;;;;;;9.18;8.02;;;;;;;6.87;100.00;101154.19;6086755;23;20088;-74
2022/11/29 04:27:04;;;;;;;8.45;7.68;;;;;;;7.15;100.00;101197.75;6024110;23;20017;-72
2022/11/29 04:29:52;;;;;;;7.63;7.03;;;;;;;6.16;100.00;101027.63;6085536;23;20267;-77
2022/11/29 04:33:03;;;;;;;8.05;7.03;;;;;;;7.25;100.00;101204.41;6085434;23;20022;-74
2022/11/29 04:35:37;;;;;;;9.00;7.75;;;;;;;7.24;100.00;101204.47;6079317;23;20033;-73
2022/11/29 04:38:28;;;;;;;9.55;6.88;;;;;;;7.24;100.00;101207.09;6073069;23;20055;-74
2022/11/29 04:41:16;;;;;;;13.80;8.90;;;;;;;7.19;100.00;101209.81;6086005;23;20336;-74
2022/11/29 04:43:49;;;;;;;13.63;8.38;;;;;;;7.12;100.00;101214.38;6093686;23;20407;-73
2022/11/29 04:46:40;;;;;;;16.52;9.00;;;;;;;7.22;100.00;101209.72;6050216;23;20083;-74
2022/11/29 04:49:53;;;;;;;9.27;7.75;;;;;;;7.16;100.00;101181.19;6081793;23;20033;-73
2022/11/29 04:53:01;;;;;;;8.25;7.38;;;;;;;7.27;100.00;101210.44;6060501;23;20451;-74
2022/11/29 04:55:48;;;;;;;16.88;8.65;;;;;;;7.40;100.00;101221.38;6062702;23;20018;-74
2022/11/29 04:58:23;;;;;;;11.80;9.25;;;;;;;7.38;100.00;101217.94;6057457;23;20037;-74
2022/11/29 05:01:02;;;;;;;10.02;8.77;;;;;;;7.03;100.00;101167.66;6084441;23;20168;-73
2022/11/29 05:03:37;;;;;;;9.40;6.88;;;;;;;7.34;100.00;101229.41;6091061;23;20025;-76
2022/11/29 05:06:15;;;;;;;13.82;8.35;;;;;;;6.82;100.00;101152.66;6089785;23;20018;-74
2022/11/29 05:08:51;;;;;;;14.45;8.70;;;;;;;7.36;100.00;101224.97;6077520;23;20314;-76
2022/11/29 05:11:22;;;;;;;17.58;8.85;;;;;;;7.15;100.00;101195.97;6085558;23;20310;-75
2022/11/29 05:14:34;;;;;;;11.55;10.02;;;;;;;7.33;100.00;101233.75;6079000;23;20022;-75
2022/11/29 05:17:31;;;;;;;9.93;8.35;;;;;;;7.35;100.00;101231.09;6043980;23;20018;-74
2022/11/29 05:20:18;;;;;;;15.50;8.30;;;;;;;7.07;100.00;101187.53;6048174;23;20048;-76
2022/11/29 05:23:11;;;;;;;10.82;9.77;;;;;;;7.02;100.00;101196.41;6046700;23;20025;-75
2022/11/29 05:26:05;;;;;;;11.13;8.90;;;;;;;7.39;100.00;101244.00;6058740;23;20010;-76
2022/11/29 05:28:46;;;;;;;16.25;8.45;;;;;;;7.29;100.00;101239.09;6083391;23;20033;-77
2022/11/29 05:31:36;;;;;;;12.07;8.85;;;;;;;7.34;100.00;101242.44;6089694;23;20022;-75
2022/11/29 05:34:33;;;;;;;22.65;10.43;;;;;;;7.26;100.00;101245.28;6057542;23;20768;-74
2022/11/29 05:37:25;;;;;;;12.98;8.20;;;;;;;7.30;100.00;101249.50;6084863;23;20559;-73
2022/11/29 05:40:04;;;;;;;13.45;10.40;;;;;;;7.02;100.00;101228.59;6062061;23;20013;-74
2022/11/29 05:43:19;;;;;;;15.10;10.73;;;;;;;6.92;100.00;101194.06;6082360;23;20194;-74
2022/11/29 05:45:56;;;;;;;13.18;9.27;;;;;;;7.26;100.00;101262.72;6073921;23;20530;-75
2022/11/29 05:48:34;;;;;;;10.18;8.60;;;;;;;7.27;100.00;101269.63;6079349;23;20046;-76
2022/11/29 05:51:36;;;;;;;8.98;7.75;;;;;;;7.23;100.00;101265.41;6076927;23;20006;-75
2022/11/29 05:54:26;;;;;;;9.80;8.82;;;;;;;7.16;100.00;101262.13;5965559;23;20032;-75
2022/11/29 05:57:04;;;;;;;13.05;9.85;;;;;;;6.56;100.00;101162.91;6029015;23;20024;-75
2022/11/29 05:59:34;;;;;;;11.23;7.82;;;;;;;6.23;100.00;101106.50;6082848;23;20018;-76
2022/11/29 06:02:25;;;;;;;9.68;8.75;;;;;;;7.30;100.00;101287.81;6083801;23;20525;-76
2022/11/29 06:05:11;;;;;;;16.95;9.90;;;;;;;7.27;100.00;101291.34;6077582;23;20018;-73
2022/11/29 06:07:59;;;;;;;8.85;7.95;;;;;;;6.69;100.00;101214.72;6058291;23;20043;-74
2022/11/29 06:10:32;;;;;;;16.25;12.32;;;;;;;7.07;100.00;101271.03;6080514;23;20025;-75
2022/11/29 06:13:25;;;;;;;13.10;9.20;;;;;;;7.32;100.00;101302.53;6080253;23;20017;-73
2022/11/29 06:16:05;;;;;;;10.25;7.47;;;;;;;6.98;100.00;101255.66;6060999;23;20060;-74
2022/11/29 06:18:57;;;;;;;8.32;7.32;;;;;;;7.31;100.00;101302.56;6090241;23;20033;-75
2022/11/29 06:21:44;;;;;;;14.25;9.18;;;;;;;6.33;100.00;101144.44;6040802;23;20033;-75
2022/11/29 06:24:34;;;;;;;18.90;10.00;;;;;;;7.27;100.00;101308.78;6058238;23;20527;-76
2022/11/29 06:27:27;;;;;;;22.83;8.38;;;;;;;7.23;100.00;101315.00;6059345;23;20190;-74
2022/11/29 06:30:07;;;;;;;;;;;;;;;7.19;100.00;101317.69;6061260;23;20021;-75
2022/11/29 06:33:01;;;;;;;8.82;7.68;;;;;;;7.19;100.00;101314.22;6088543;23;20447;-74
2022/11/29 06:35:39;;;;;;;17.13;8.23;;;;;;;6.59;100.00;101216.72;6078954;23;20026;-75
2022/11/29 06:38:16;;;;;;;14.35;9.52;;;;;;;7.12;100.00;101317.91;6083436;23;20089;-75
2022/11/29 06:40:43;;;;;;;10.50;7.95;;;;;;;6.64;100.00;101235.72;6085536;23;20488;-73
2022/11/29 06:43:10;;;;;;;17.10;9.30;;;;;;;6.55;100.00;101230.75;6088626;23;20029;-75
2022/11/29 06:45:39;;;;;;;14.82;8.18;;;;;;;6.99;100.00;101302.56;6088512;23;20029;-77
2022/11/29 06:48:08;;;;;;;9.15;8.20;;;;;;;7.13;100.00;101327.44;6086519;23;20030;-75
2022/11/29 06:50:58;;;;;;;18.60;9.23;;;;;;;6.87;100.00;101291.63;6068554;23;20014;-73
2022/11/29 06:53:56;;;;;;;13.90;8.57;;;;;;;6.60;100.00;101252.34;6075321;23;20025;-75
2022/11/29 06:56:35;;;;;;;17.55;10.70;;;;;;;6.37;100.00;101222.53;6082771;23;20286;-75
2022/11/29 06:59:46;;;;;;;9.70;8.10;;;;;;;7.03;100.00;101339.03;6087768;23;20558;-74
2022/11/29 07:02:40;;;;;;;11.93;5.68;;;;;;;7.02;100.00;101346.03;6060952;23;20388;-75
2022/11/29 07:05:13;;;;;;;11.40;8.50;;;;;;;6.96;100.00;101338.34;6084464;23;20451;-75
2022/11/29 07:07:40;;;;;;;19.63;9.45;;;;;;;6.02;100.00;101204.34;6048318;23;20019;-75
2022/11/29 07:10:14;;;;;;;10.15;6.88;;;;;;;6.41;100.00;101277.19;6082530;23;20056;-75
2022/11/29 07:12:41;;;;;;;17.40;8.80;;;;;;;6.36;100.00;101272.09;6084028;23;20030;-74
2022/11/29 07:15:12;;;;;;;14.90;7.75;;;;;;;6.81;100.00;101350.03;6081194;23;20372;-75
2022/11/29 07:17:53;;;;;;;9.75;8.07;;;;;;;6.56;100.00;101313.31;6046107;23;20652;-75
2022/11/29 07:20:28;;;;;;;10.52;9.23;;;;;;;6.54;100.00;101304.69;6073552;23;20487;-75
2022/11/29 07:23:23;;;;;;;6.78;6.15;;;;;;;6.78;100.00;101361.41;6085354;23;20037;-75
2022/11/29 07:26:13;;;;;;;12.98;6.97;;;;;;;6.78;100.00;101358.81;6084066;23;20486;-73
2022/11/29 07:29:17;;;;;;;6.15;5.68;;;;;;;6.82;100.00;101362.19;6036424;23;20034;-72
2022/11/29 07:32:05;;;;;;;9.25;7.97;;;;;;;6.70;100.00;101352.09;6085143;23;20557;-72
2022/11/29 07:34:43;;;;;;;13.32;8.95;;;;;;;6.87;100.00;101370.75;6074885;23;20017;-73
2022/11/29 07:37:17;;;;;;;14.88;7.95;;;;;;;6.93;100.00;101388.00;6076274;23;20388;-73
2022/11/29 07:39:43;;;;;;;;;;;;;;;6.88;100.00;101379.47;6067786;23;20013;-72
2022/11/29 07:42:22;;;;;;;11.52;7.00;;;;;;;6.94;100.00;101382.75;6081948;23;19931;-74
2022/11/29 07:45:31;;;;;;;9.93;8.80;;;;;;;7.02;100.00;101377.34;6074655;23;20018;-73
2022/11/29 07:47:58;;;;;;;12.70;7.90;;;;;;;6.68;100.00;101333.84;6050581;23;20969;-74
2022/11/29 07:50:26;;;;;;;18.20;7.93;;;;;;;7.09;100.00;101407.56;6085571;23;20042;-73
2022/11/29 07:52:54;;;;;;;9.40;8.65;;;;;;;6.94;100.00;101389.72;6084002;23;20209;-71
2022/11/29 07:55:24;;;;;;;11.65;7.57;;;;;;;7.12;100.00;101396.22;6096612;23;20097;-74
2022/11/29 07:57:51;;;;;;;13.52;9.20;;;;;;;7.10;100.00;101387.56;6059538;23;20466;-73
2022/11/29 08:00:18;;;;;;;21.00;7.60;;;;;;;7.08;100.00;101390.22;6085982;23;20275;-71
2022/11/29 08:02:48;;;;;;;12.38;9.68;;;;;;;6.70;100.00;101328.59;6058950;23;20026;-71
2022/11/29 08:05:15;;;;;;;10.48;7.57;;;;;;;7.12;100.00;101393.59;6089347;23;20033;-73
2022/11/29 08:07:41;;;;;;;16.63;9.93;;;;;;;7.07;100.00;101393.72;6079966;23;20617;-72
2022/11/29 08:10:11;;;;;;;12.68;9.32;;;;;;;6.73;100.00;101339.78;6081795;23;20034;-72
2022/11/29 08:12:48;;;;;;;19.17;10.27;;;;;;;7.06;100.00;101394.63;6064708;23;20013;-73
2022/11/29 08:15:19;;;;;;;10.07;8.70;;;;;;;7.03;100.00;101397.31;6087773;23;20374;-73
2022/11/29 08:17:45;;;;;;;25.80;9.10;;;;;;;7.08;100.00;101394.59;6032098;23;20026;-71
2022/11/29 08:20:13;;;;;;;11.68;9.85;;;;;;;7.11;100.00;101402.31;6062069;23;20612;-74
2022/11/29 08:22:40;;;;;;;11.80;8.32;;;;;;;6.70;100.00;101352.94;6070770;23;20033;-72
2022/11/29 08:25:07;;;;;;;14.35;9.60;;;;;;;7.16;100.00;101408.28;6061582;23;20030;-72
2022/11/29 08:27:34;;;;;;;20.52;10.50;;;;;;;7.15;100.00;101403.97;6057510;23;20018;-73
2022/11/29 08:30:01;;;;;;;18.08;9.45;;;;;;;6.72;100.00;101371.16;6060534;23;20018;-72
2022/11/29 08:32:27;;;;;;;22.20;11.90;;;;;;;7.00;100.00;101379.13;6087872;23;20034;-73
2022/11/29 08:34:54;;;;;;;14.15;8.85;;;;;;;6.90;100.00;101357.63;5901754;23;20025;-75
2022/11/29 08:37:20;;;;;;;21.02;8.85;;;;;;;7.26;100.00;101406.28;6047418;23;20051;-74
2022/11/29 08:39:46;;;;;;;11.98;9.10;;;;;;;6.91;100.00;101332.38;6086855;23;20018;-72
2022/11/29 08:42:13;;;;;;;13.90;10.60;;;;;;;7.28;100.00;101400.13;6086469;23;20013;-74
2022/11/29 08:44:39;;;;;;;13.85;10.05;;;;;;;7.27;100.00;101394.94;6083686;23;20032;-72
2022/11/29 08:50:00;;;;;;;19.65;9.82;;;;;;;7.36;100.00;101397.31;6053102;23;20066;-72
2022/11/29 08:55:18;;;;;;;15.70;10.27;;;;;;;6.57;100.00;101260.25;6097856;18;20042;-84
2022/11/29 08:57:46;;;;;;;12.93;9.07;;;;;;;7.03;100.00;101328.59;6121496;23;20033;-83
2022/11/29 09:00:13;;;;;;;17.20;9.63;;;;;;;7.15;100.00;101352.59;6096584;23;20104;-84
2022/11/29 09:02:40;;;;;;;19.98;9.65;;;;;;;6.52;100.00;101247.34;6097652;23;20013;-84
2022/11/29 09:05:12;;;;;;;10.45;8.75;;;;;;;6.32;100.00;101227.00;6097872;23;20092;-84
2022/11/29 09:07:38;;;;;;;22.55;10.25;;;;;;;6.74;100.00;101309.38;6095313;23;20013;-85
2022/11/29 09:10:07;;;;;;;13.38;8.38;;;;;;;6.39;100.00;101239.00;6095506;23;20835;-83
2022/11/29 09:12:35;;;;;;;17.05;7.25;;;;;;;7.19;100.00;101351.63;6098800;23;20064;-83
2022/11/29 09:15:07;;;;;;;11.55;8.20;;;;;;;7.23;100.00;101373.28;6128033;23;20382;-85
2022/11/29 09:17:33;;;;;;;16.98;9.23;;;;;;;5.84;100.00;101133.53;6099867;23;20083;-84
2022/11/29 09:19:59;;;;;;;22.02;10.00;;;;;;;6.39;100.00;101217.25;6109385;23;20390;-85
2022/11/29 09:22:26;;;;;;;32.03;8.38;;;;;;;7.61;100.00;101415.75;6095347;23;20090;-86
2022/11/29 09:24:52;;;;;;;12.98;9.82;;;;;;;6.86;100.00;101293.38;6082754;23;20008;-85
2022/11/29 09:27:19;;;;;;;19.20;10.18;;;;;;;7.54;100.00;101402.00;6120940;23;20528;-84
2022/11/29 09:29:45;;;;;;;14.85;9.95;;;;;;;7.58;100.00;101421.06;6115364;23;20005;-84
2022/11/29 09:32:12;;;;;;;14.02;10.00;;;;;;;6.50;100.00;101236.09;6099325;23;20029;-83
2022/11/29 09:34:38;;;;;;;8.55;7.35;;;;;;;6.65;100.00;101253.06;6092281;23;20084;-85
2022/11/29 09:37:05;;;;;;;17.13;10.18;;;;;;;7.03;100.00;101328.59;6088834;23;20014;-84
2022/11/29 09:39:31;;;;;;;20.35;9.77;;;;;;;7.56;100.00;101415.88;6087377;23;20407;-83
2022/11/29 09:42:41;;;;;;;18.42;9.90;;;;;;;7.80;100.00;101447.44;6092459;23;20009;-84
2022/11/29 09:45:25;;;;;;;16.50;9.65;;;;;;;7.92;100.00;101448.84;6064122;23;20025;-84
2022/11/29 09:48:12;;;;;;;20.35;10.05;;;;;;;7.96;100.00;101451.31;6118885;23;20088;-84
2022/11/29 09:51:06;;;;;;;16.48;8.05;;;;;;;8.01;100.00;101451.19;6089383;23;20021;-83
2022/11/29 09:53:42;;;;;;;21.00;9.25;;;;;;;8.06;100.00;101453.66;6103963;23;20005;-85
2022/11/29 09:56:27;;;;;;;14.63;9.20;;;;;;;8.13;100.00;101457.81;6098280;23;20471;-85
2022/11/29 09:59:04;;;;;;;21.52;9.20;;;;;;;5.40;100.00;100997.53;6096083;23;20079;-84
2022/11/29 10:02:19;;;;;;;21.00;9.10;;;;;;;8.19;100.00;101470.69;6099348;23;20706;-86
2022/11/29 10:04:53;;;;;;;22.73;8.90;;;;;;;7.09;100.00;101294.50;6100914;23;20017;-84
2022/11/29 10:07:45;;;;;;;;;;;;;;;8.31;100.00;101469.47;6096336;23;20021;-84
2022/11/29 10:10:42;;;;;;;12.57;8.88;;;;;;;8.28;100.00;101475.66;6114335;23;19921;-83
2022/11/29 10:13:31;;;;;;;21.73;10.70;;;;;;;7.23;100.00;101347.16;6063686;23;20407;-84
2022/11/29 10:16:08;;;;;;;28.02;10.82;;;;;;;7.03;100.00;101323.38;6105939;23;20494;-86
2022/11/29 10:18:48;;;;;;;15.80;9.63;;;;;;;6.82;100.00;101289.16;6120652;23;20270;-86
2022/11/29 10:21:24;;;;;;;14.43;9.15;;;;;;;6.75;100.00;101204.97;6116790;23;20028;-83
2022/11/29 10:23:55;;;;;;;19.70;7.55;;;;;;;5.75;100.00;101073.88;6124783;23;20494;-84
2022/11/29 10:26:23;;;;;;;18.73;9.90;;;;;;;5.90;100.00;101145.56;6102988;23;20052;-84
2022/11/29 10:28:50;;;;;;;17.02;9.63;;;;;;;7.02;100.00;101277.31;6085455;23;20030;-83
2022/11/29 10:31:27;;;;;;;16.48;10.02;;;;;;;8.10;100.00;101471.84;6096322;23;20017;-84
2022/11/29 10:33:56;;;;;;;19.02;9.23;;;;;;;6.47;100.00;101191.84;6122317;23;20114;-84
2022/11/29 10:36:39;;;;;;;15.70;10.35;;;;;;;8.04;100.00;101439.78;6116997;23;20029;-85
2022/11/29 10:39:12;;;;;;;15.63;8.77;;;;;;;5.96;100.00;101077.69;6122434;23;20033;-83
2022/11/29 10:41:40;;;;;;;22.13;9.25;;;;;;;7.11;100.00;101303.13;6120717;23;20497;-87
2022/11/29 10:44:12;;;;;;;16.48;9.13;;;;;;;6.41;100.00;101162.47;6095128;23;20028;-87
2022/11/29 10:46:39;;;;;;;29.60;9.97;;;;;;;6.55;100.00;101183.81;6106616;23;20043;-85
2022/11/29 10:49:12;;;;;;;12.50;8.40;;;;;;;7.01;100.00;101239.06;6121808;23;20018;-84
2022/11/29 10:51:38;;;;;;;29.63;12.75;;;;;;;6.43;100.00;101171.13;6084896;23;20017;-84
2022/11/29 10:54:18;;;;;;;21.25;11.32;;;;;;;7.62;100.00;101327.78;6121784;23;20092;-84
2022/11/29 10:56:46;;;;;;;16.45;9.23;;;;;;;7.84;100.00;101385.47;6118646;23;20087;-85
2022/11/29 10:59:25;;;;;;;29.25;10.32;;;;;;;8.47;100.00;101475.97;6095435;23;20140;-84
2022/11/29 11:01:52;;;;;;;12.10;8.10;;;;;;;8.37;100.00;101480.59;6098961;23;20056;-84
2022/11/29 11:04:32;;;;;;;24.35;9.00;;;;;;;8.24;100.00;101489.72;6113796;23;20104;-87
2022/11/29 11:07:02;;;;;;;18.80;10.20;;;;;;;8.24;100.00;101487.13;6114327;23;20248;-84
2022/11/29 11:09:32;;;;;;;16.13;9.27;;;;;;;6.76;100.00;101269.31;6087615;23;20023;-85
2022/11/29 11:12:16;;;;;;;22.42;10.95;;;;;;;8.10;100.00;101500.59;6085043;23;20424;-84
2022/11/29 11:14:50;;;;;;;13.43;9.27;;;;;;;7.93;100.00;101482.75;6114091;23;20014;-85
2022/11/29 11:17:31;;;;;;;14.35;9.75;;;;;;;7.81;100.00;101485.72;6080626;23;20019;-82
2022/11/29 11:20:03;;;;;;;14.90;9.30;;;;;;;8.07;100.00;101502.44;6110808;23;20435;-85
2022/11/29 11:22:32;;;;;;;16.17;10.68;;;;;;;6.85;100.00;101298.63;6087882;23;20010;-85
2022/11/29 11:25:04;;;;;;;10.00;8.82;;;;;;;6.95;100.00;101323.59;6097597;23;20021;-85
2022/11/29 11:27:39;;;;;;;17.30;9.88;;;;;;;7.72;100.00;101455.50;6095035;23;20133;-86
2022/11/29 11:30:20;;;;;;;23.58;10.52;;;;;;;8.14;100.00;101514.44;6102426;23;20048;-84
2022/11/29 11:33:16;;;;;;;12.93;9.00;;;;;;;8.18;100.00;101511.69;6127181;23;20026;-85
2022/11/29 11:35:42;;;;;;;23.83;9.65;;;;;;;7.90;100.00;101448.03;6102157;23;20039;-83
2022/11/29 11:38:16;;;;;;;17.35;10.00;;;;;;;8.23;100.00;101522.00;6078966;23;20037;-85
2022/11/29 11:40:42;;;;;;;14.70;9.05;;;;;;;7.11;100.00;101350.13;6093335;23;20010;-85
2022/11/29 11:43:20;;;;;;;22.90;10.20;;;;;;;7.61;100.00;101446.25;6125818;23;20032;-83
2022/11/29 11:45:52;;;;;;;18.33;9.68;;;;;;;7.91;100.00;101476.72;6120659;23;20013;-85
2022/11/29 11:48:19;;;;;;;13.75;8.35;;;;;;;8.22;100.00;101522.91;6102794;23;20025;-85
2022/11/29 11:50:53;;;;;;;13.10;8.30;;;;;;;8.23;100.00;101519.38;6072981;23;20006;-85
2022/11/29 11:53:28;;;;;;;15.10;7.88;;;;;;;7.58;100.00;101401.03;6119827;23;20088;-86
2022/11/29 11:56:09;;;;;;;17.20;9.52;;;;;;;8.46;100.00;101523.09;6092669;23;20016;-85
2022/11/29 11:58:48;;;;;;;15.88;8.93;;;;;;;7.99;100.00;101453.00;6100402;23;20514;-85
2022/11/29 12:01:26;;;;;;;21.23;9.82;;;;;;;8.33;100.00;101525.22;6119611;23;20209;-84
2022/11/29 12:04:02;;;;;;;12.57;10.02;;;;;;;8.18;100.00;101526.53;6099250;23;20143;-85
2022/11/29 12:06:47;;;;;;;23.45;12.60;;;;;;;8.32;100.00;101550.50;6100281;23;20026;-86
2022/11/29 12:09:33;;;;;;;17.02;10.30;;;;;;;8.03;100.00;101495.59;6112331;23;20058;-85
2022/11/29 12:12:14;;;;;;;21.30;9.95;;;;;;;7.96;100.00;101506.22;6120282;23;20084;-85
2022/11/29 12:14:54;;;;;;;14.95;9.02;;;;;;;8.36;100.00;101530.38;6110592;23;20013;-84